Aérodrome :
LOGIN :

S'inscrire | Disclaimer

   EN    FR    IT 

 










Légende :    VFR   VFR Marginal   IFR   IFR Intensif   IFR Très Intensif
Visi : 
Plafond : 
>= 8 km
>= 3000ft
5 à 8 km
1000 à 3000 ft
1500m à 5 km
500 à 1000 ft
800 à 1500m
200 à 500 ft
< 800m
< 200 ft
Symboles :   Orages  Brouillard  Fortes neiges  Fortes précipitations  Vent > 20 kt
SIGMETs :   Divers  Orages  Givrage  Turbulence  Onde Orograph.  Cendres Volcan.






- Altitude de l'aérodrome : 12 ft
- Code IATA : NCE


LFMN - Nice

DERNIER METAR :
  • 180300Z 32010KT 9999 FEW015 BKN110 16/12 Q1017 NOSIG

METARs EXPIRÉS :
  • 180230Z 33009KT 9999 FEW015 BKN110 16/12 Q1017 NOSIG
  • 180200Z 33008KT 9999 FEW015 BKN110 16/12 Q1017 NOSIG
  • 180130Z 34005KT 9999 FEW070 BKN110 16/12 Q1018 NOSIG
  • 180100Z 33008KT 9999 FEW070 BKN110 16/12 Q1018 NOSIG
  • 180030Z 32008KT 9999 FEW070 BKN110 16/13 Q1018 NOSIG

TAF TAF LFMN
Valide du 18 à 03h jusqu'au 19 à 09h UTC


180200Z 1803/1909 34010KT 9999 FEW060
PROB30
TEMPO 1804/1807 BKN014
BECMG 1808/1810 18010KT
BECMG 1818/1820 34010KT BKN020
TEMPO 1820/1909 SHRA FEW030CB
PROB30
TEMPO 1820/1909 TSRA SCT030CB
ATIS : +33 4 93 17 21 16



MET'MAP, la Météo Aéronautique d'un coup d'oeil ! - Copyright ORBIFLY Décembre 2007 - Disclaimer

ORBIFLY MET'MAP TEAM :

Programmation & Développement : Alexandra Zaïnal
Conception & Développement : Baudouin d'Aumeries
Co-Programmation & Développement : Marc-Olivier Méhu
Soutien technique & logistique : Manuel Goepfert

Contact : metmap@orbifly.com




SOURCES & CREDITS :

   NOAA